sensor_id;sensor_type;location;lat;lon;timestamp;P1;durP1;ratioP1;P2;durP2;ratioP2
9854;SDS011;4966;48.112;9.282;2024-01-27T00:00:20;4.60;;;1.95;;
9854;SDS011;4966;48.112;9.282;2024-01-27T00:02:45;4.40;;;1.98;;
9854;SDS011;4966;48.112;9.282;2024-01-27T00:05:11;6.68;;;2.33;;
9854;SDS011;4966;48.112;9.282;2024-01-27T00:07:36;7.28;;;3.08;;
9854;SDS011;4966;48.112;9.282;2024-01-27T00:10:02;8.50;;;2.50;;
9854;SDS011;4966;48.112;9.282;2024-01-27T00:12:27;6.25;;;2.65;;
9854;SDS011;4966;48.112;9.282;2024-01-27T00:14:53;7.15;;;2.70;;
9854;SDS011;4966;48.112;9.282;2024-01-27T00:17:18;6.70;;;3.08;;
9854;SDS011;4966;48.112;9.282;2024-01-27T00:19:48;5.95;;;3.35;;
9854;SDS011;4966;48.112;9.282;2024-01-27T00:22:14;8.05;;;3.17;;
9854;SDS011;4966;48.112;9.282;2024-01-27T00:24:39;6.10;;;2.80;;
9854;SDS011;4966;48.112;9.282;2024-01-27T00:27:04;10.68;;;2.75;;
9854;SDS011;4966;48.112;9.282;2024-01-27T00:29:30;7.10;;;3.08;;
9854;SDS011;4966;48.112;9.282;2024-01-27T00:31:55;5.72;;;2.90;;
9854;SDS011;4966;48.112;9.282;2024-01-27T00:34:21;6.63;;;2.78;;
9854;SDS011;4966;48.112;9.282;2024-01-27T00:36:46;5.93;;;2.60;;
9854;SDS011;4966;48.112;9.282;2024-01-27T00:39:17;4.93;;;2.63;;
9854;SDS011;4966;48.112;9.282;2024-01-27T00:41:43;5.45;;;2.42;;
9854;SDS011;4966;48.112;9.282;2024-01-27T00:44:08;7.88;;;2.35;;
9854;SDS011;4966;48.112;9.282;2024-01-27T00:46:34;4.20;;;2.17;;
9854;SDS011;4966;48.112;9.282;2024-01-27T00:48:59;5.55;;;2.83;;
9854;SDS011;4966;48.112;9.282;2024-01-27T00:51:25;6.38;;;2.30;;
9854;SDS011;4966;48.112;9.282;2024-01-27T00:53:50;5.38;;;2.20;;
9854;SDS011;4966;48.112;9.282;2024-01-27T00:56:15;8.93;;;2.90;;
9854;SDS011;4966;48.112;9.282;2024-01-27T00:58:41;7.05;;;3.15;;
9854;SDS011;4966;48.112;9.282;2024-01-27T01:01:06;8.20;;;2.63;;
9854;SDS011;4966;48.112;9.282;2024-01-27T01:03:31;6.32;;;2.63;;
9854;SDS011;4966;48.112;9.282;2024-01-27T01:05:57;6.60;;;2.40;;
9854;SDS011;4966;48.112;9.282;2024-01-27T01:08:22;5.88;;;2.65;;
9854;SDS011;4966;48.112;9.282;2024-01-27T01:10:47;7.00;;;2.67;;
9854;SDS011;4966;48.112;9.282;2024-01-27T01:13:13;6.60;;;3.22;;
9854;SDS011;4966;48.112;9.282;2024-01-27T01:15:38;7.70;;;2.70;;
9854;SDS011;4966;48.112;9.282;2024-01-27T01:18:04;5.93;;;2.83;;
9854;SDS011;4966;48.112;9.282;2024-01-27T01:20:30;10.23;;;2.70;;
9854;SDS011;4966;48.112;9.282;2024-01-27T01:22:55;11.25;;;2.90;;
9854;SDS011;4966;48.112;9.282;2024-01-27T01:25:21;7.78;;;3.08;;
9854;SDS011;4966;48.112;9.282;2024-01-27T01:27:46;6.25;;;3.08;;
9854;SDS011;4966;48.112;9.282;2024-01-27T01:30:11;7.88;;;3.60;;
9854;SDS011;4966;48.112;9.282;2024-01-27T01:32:37;3.95;;;2.22;;
9854;SDS011;4966;48.112;9.282;2024-01-27T01:35:02;6.85;;;2.72;;
9854;SDS011;4966;48.112;9.282;2024-01-27T01:37:28;6.88;;;3.05;;
9854;SDS011;4966;48.112;9.282;2024-01-27T01:39:54;5.82;;;2.50;;
9854;SDS011;4966;48.112;9.282;2024-01-27T01:42:19;5.30;;;2.75;;
9854;SDS011;4966;48.112;9.282;2024-01-27T01:44:48;5.43;;;2.72;;
9854;SDS011;4966;48.112;9.282;2024-01-27T01:47:13;8.80;;;3.03;;
9854;SDS011;4966;48.112;9.282;2024-01-27T01:49:39;5.68;;;2.72;;
9854;SDS011;4966;48.112;9.282;2024-01-27T01:52:05;9.50;;;3.15;;
9854;SDS011;4966;48.112;9.282;2024-01-27T01:54:31;7.15;;;2.80;;
9854;SDS011;4966;48.112;9.282;2024-01-27T01:56:57;9.80;;;3.78;;
9854;SDS011;4966;48.112;9.282;2024-01-27T01:59:24;15.73;;;5.40;;
9854;SDS011;4966;48.112;9.282;2024-01-27T02:01:49;10.95;;;3.92;;
9854;SDS011;4966;48.112;9.282;2024-01-27T02:04:15;10.85;;;3.70;;
9854;SDS011;4966;48.112;9.282;2024-01-27T02:06:40;9.35;;;3.75;;
9854;SDS011;4966;48.112;9.282;2024-01-27T02:09:05;9.05;;;3.22;;
9854;SDS011;4966;48.112;9.282;2024-01-27T02:11:31;12.63;;;3.85;;
9854;SDS011;4966;48.112;9.282;2024-01-27T02:13:56;6.57;;;3.38;;
9854;SDS011;4966;48.112;9.282;2024-01-27T02:16:21;10.20;;;4.28;;
9854;SDS011;4966;48.112;9.282;2024-01-27T02:18:47;9.70;;;3.83;;
9854;SDS011;4966;48.112;9.282;2024-01-27T02:21:12;10.98;;;3.63;;
9854;SDS011;4966;48.112;9.282;2024-01-27T02:23:38;10.90;;;4.00;;
9854;SDS011;4966;48.112;9.282;2024-01-27T02:26:03;11.45;;;3.45;;
9854;SDS011;4966;48.112;9.282;2024-01-27T02:28:28;6.05;;;2.58;;
9854;SDS011;4966;48.112;9.282;2024-01-27T02:30:57;7.68;;;3.60;;
9854;SDS011;4966;48.112;9.282;2024-01-27T02:33:22;9.25;;;3.67;;
9854;SDS011;4966;48.112;9.282;2024-01-27T02:35:48;7.43;;;3.38;;
9854;SDS011;4966;48.112;9.282;2024-01-27T02:38:13;6.22;;;3.03;;
9854;SDS011;4966;48.112;9.282;2024-01-27T02:40:38;8.57;;;3.28;;
9854;SDS011;4966;48.112;9.282;2024-01-27T02:43:04;8.35;;;3.90;;
9854;SDS011;4966;48.112;9.282;2024-01-27T02:45:29;7.55;;;3.20;;
9854;SDS011;4966;48.112;9.282;2024-01-27T02:47:54;6.22;;;3.38;;
9854;SDS011;4966;48.112;9.282;2024-01-27T02:50:20;8.15;;;3.13;;
9854;SDS011;4966;48.112;9.282;2024-01-27T02:52:45;8.30;;;3.40;;
9854;SDS011;4966;48.112;9.282;2024-01-27T02:55:10;6.90;;;3.13;;
9854;SDS011;4966;48.112;9.282;2024-01-27T02:57:36;5.40;;;2.63;;
9854;SDS011;4966;48.112;9.282;2024-01-27T03:00:01;5.95;;;2.60;;
9854;SDS011;4966;48.112;9.282;2024-01-27T03:02:26;5.53;;;2.92;;
9854;SDS011;4966;48.112;9.282;2024-01-27T03:04:52;5.13;;;2.28;;
9854;SDS011;4966;48.112;9.282;2024-01-27T03:07:17;5.20;;;2.58;;
9854;SDS011;4966;48.112;9.282;2024-01-27T03:09:42;5.38;;;2.75;;
9854;SDS011;4966;48.112;9.282;2024-01-27T03:12:08;6.63;;;2.60;;
9854;SDS011;4966;48.112;9.282;2024-01-27T03:14:33;5.75;;;2.80;;
9854;SDS011;4966;48.112;9.282;2024-01-27T03:16:58;6.70;;;2.50;;
9854;SDS011;4966;48.112;9.282;2024-01-27T03:19:24;6.95;;;2.95;;
9854;SDS011;4966;48.112;9.282;2024-01-27T03:21:49;7.22;;;2.72;;
9854;SDS011;4966;48.112;9.282;2024-01-27T03:24:14;6.50;;;2.95;;
9854;SDS011;4966;48.112;9.282;2024-01-27T03:26:40;4.22;;;2.33;;
9854;SDS011;4966;48.112;9.282;2024-01-27T03:29:05;4.82;;;2.13;;
9854;SDS011;4966;48.112;9.282;2024-01-27T03:31:31;4.38;;;1.95;;
9854;SDS011;4966;48.112;9.282;2024-01-27T03:33:58;6.28;;;2.17;;
9854;SDS011;4966;48.112;9.282;2024-01-27T03:36:24;5.93;;;1.95;;
9854;SDS011;4966;48.112;9.282;2024-01-27T03:38:49;4.93;;;2.00;;
9854;SDS011;4966;48.112;9.282;2024-01-27T03:41:14;4.15;;;1.98;;
9854;SDS011;4966;48.112;9.282;2024-01-27T03:43:39;3.53;;;1.73;;
9854;SDS011;4966;48.112;9.282;2024-01-27T03:46:05;3.38;;;1.42;;
9854;SDS011;4966;48.112;9.282;2024-01-27T03:48:30;6.00;;;1.70;;
9854;SDS011;4966;48.112;9.282;2024-01-27T03:50:55;3.13;;;1.27;;
9854;SDS011;4966;48.112;9.282;2024-01-27T03:53:21;2.95;;;1.20;;
9854;SDS011;4966;48.112;9.282;2024-01-27T03:55:46;4.72;;;1.48;;
9854;SDS011;4966;48.112;9.282;2024-01-27T03:58:12;2.20;;;1.00;;
9854;SDS011;4966;48.112;9.282;2024-01-27T04:00:37;6.97;;;1.50;;
9854;SDS011;4966;48.112;9.282;2024-01-27T04:03:02;3.72;;;1.15;;
9854;SDS011;4966;48.112;9.282;2024-01-27T04:05:29;4.05;;;1.30;;
9854;SDS011;4966;48.112;9.282;2024-01-27T04:07:55;10.25;;;1.48;;
9854;SDS011;4966;48.112;9.282;2024-01-27T04:10:21;6.35;;;1.48;;
9854;SDS011;4966;48.112;9.282;2024-01-27T04:12:47;8.07;;;1.58;;
9854;SDS011;4966;48.112;9.282;2024-01-27T04:15:12;3.33;;;1.33;;
9854;SDS011;4966;48.112;9.282;2024-01-27T04:17:38;5.18;;;1.23;;
9854;SDS011;4966;48.112;9.282;2024-01-27T04:20:05;2.92;;;0.82;;
9854;SDS011;4966;48.112;9.282;2024-01-27T04:22:32;2.92;;;1.23;;
9854;SDS011;4966;48.112;9.282;2024-01-27T04:24:58;3.92;;;1.63;;
9854;SDS011;4966;48.112;9.282;2024-01-27T04:27:23;3.15;;;1.50;;
9854;SDS011;4966;48.112;9.282;2024-01-27T04:29:48;3.35;;;1.38;;
9854;SDS011;4966;48.112;9.282;2024-01-27T04:32:14;2.03;;;1.02;;
9854;SDS011;4966;48.112;9.282;2024-01-27T04:34:39;5.43;;;1.40;;
9854;SDS011;4966;48.112;9.282;2024-01-27T04:37:05;4.05;;;1.67;;
9854;SDS011;4966;48.112;9.282;2024-01-27T04:39:30;3.45;;;1.45;;
9854;SDS011;4966;48.112;9.282;2024-01-27T04:41:56;4.00;;;2.05;;
9854;SDS011;4966;48.112;9.282;2024-01-27T04:44:21;5.25;;;1.60;;
9854;SDS011;4966;48.112;9.282;2024-01-27T04:46:46;3.47;;;1.80;;
9854;SDS011;4966;48.112;9.282;2024-01-27T04:49:13;3.95;;;1.15;;
9854;SDS011;4966;48.112;9.282;2024-01-27T04:51:39;3.53;;;1.27;;
9854;SDS011;4966;48.112;9.282;2024-01-27T04:54:04;4.72;;;1.55;;
9854;SDS011;4966;48.112;9.282;2024-01-27T04:56:30;2.78;;;1.20;;
9854;SDS011;4966;48.112;9.282;2024-01-27T04:58:55;8.07;;;1.88;;
9854;SDS011;4966;48.112;9.282;2024-01-27T05:01:20;4.80;;;1.42;;
9854;SDS011;4966;48.112;9.282;2024-01-27T05:03:46;6.00;;;1.45;;
9854;SDS011;4966;48.112;9.282;2024-01-27T05:06:11;3.22;;;1.60;;
9854;SDS011;4966;48.112;9.282;2024-01-27T05:08:36;7.45;;;1.38;;
9854;SDS011;4966;48.112;9.282;2024-01-27T05:11:02;4.60;;;1.58;;
9854;SDS011;4966;48.112;9.282;2024-01-27T05:13:27;2.38;;;1.15;;
9854;SDS011;4966;48.112;9.282;2024-01-27T05:15:52;3.60;;;1.27;;
9854;SDS011;4966;48.112;9.282;2024-01-27T05:18:18;7.40;;;1.30;;
9854;SDS011;4966;48.112;9.282;2024-01-27T05:20:43;3.25;;;1.55;;
9854;SDS011;4966;48.112;9.282;2024-01-27T05:23:08;2.38;;;1.23;;
9854;SDS011;4966;48.112;9.282;2024-01-27T05:25:34;11.93;;;1.70;;
9854;SDS011;4966;48.112;9.282;2024-01-27T05:27:59;8.65;;;1.80;;
9854;SDS011;4966;48.112;9.282;2024-01-27T05:30:24;6.40;;;1.70;;
9854;SDS011;4966;48.112;9.282;2024-01-27T05:32:50;4.05;;;2.13;;
9854;SDS011;4966;48.112;9.282;2024-01-27T05:35:15;5.25;;;3.45;;
9854;SDS011;4966;48.112;9.282;2024-01-27T05:37:40;6.30;;;2.35;;
9854;SDS011;4966;48.112;9.282;2024-01-27T05:40:06;4.95;;;1.35;;
9854;SDS011;4966;48.112;9.282;2024-01-27T05:42:32;3.08;;;1.35;;
9854;SDS011;4966;48.112;9.282;2024-01-27T05:44:58;7.25;;;2.13;;
9854;SDS011;4966;48.112;9.282;2024-01-27T05:47:23;5.88;;;2.08;;
9854;SDS011;4966;48.112;9.282;2024-01-27T05:49:48;9.60;;;2.95;;
9854;SDS011;4966;48.112;9.282;2024-01-27T05:52:14;11.80;;;2.88;;
9854;SDS011;4966;48.112;9.282;2024-01-27T05:54:39;6.30;;;2.22;;
9854;SDS011;4966;48.112;9.282;2024-01-27T05:57:06;8.27;;;2.05;;
9854;SDS011;4966;48.112;9.282;2024-01-27T05:59:32;8.57;;;2.50;;
9854;SDS011;4966;48.112;9.282;2024-01-27T06:01:57;7.15;;;2.45;;
9854;SDS011;4966;48.112;9.282;2024-01-27T06:04:23;4.90;;;2.40;;
9854;SDS011;4966;48.112;9.282;2024-01-27T06:06:48;6.05;;;2.67;;
9854;SDS011;4966;48.112;9.282;2024-01-27T06:09:13;5.57;;;2.35;;
9854;SDS011;4966;48.112;9.282;2024-01-27T06:11:39;5.55;;;2.22;;
9854;SDS011;4966;48.112;9.282;2024-01-27T06:14:04;4.10;;;2.00;;
9854;SDS011;4966;48.112;9.282;2024-01-27T06:16:31;10.93;;;3.30;;
9854;SDS011;4966;48.112;9.282;2024-01-27T06:18:57;4.00;;;2.08;;
9854;SDS011;4966;48.112;9.282;2024-01-27T06:21:22;5.13;;;1.85;;
9854;SDS011;4966;48.112;9.282;2024-01-27T06:23:47;5.82;;;1.75;;
9854;SDS011;4966;48.112;9.282;2024-01-27T06:26:13;5.65;;;1.58;;
9854;SDS011;4966;48.112;9.282;2024-01-27T06:28:39;8.05;;;1.98;;
9854;SDS011;4966;48.112;9.282;2024-01-27T06:31:04;5.25;;;2.35;;
9854;SDS011;4966;48.112;9.282;2024-01-27T06:33:30;8.07;;;2.60;;
9854;SDS011;4966;48.112;9.282;2024-01-27T06:35:56;6.88;;;2.97;;
9854;SDS011;4966;48.112;9.282;2024-01-27T06:38:21;5.28;;;2.38;;
9854;SDS011;4966;48.112;9.282;2024-01-27T06:40:46;5.38;;;2.38;;
9854;SDS011;4966;48.112;9.282;2024-01-27T06:43:12;6.22;;;2.28;;
9854;SDS011;4966;48.112;9.282;2024-01-27T06:45:38;8.88;;;2.35;;
9854;SDS011;4966;48.112;9.282;2024-01-27T06:48:03;6.75;;;2.85;;
9854;SDS011;4966;48.112;9.282;2024-01-27T06:50:29;7.57;;;3.13;;
9854;SDS011;4966;48.112;9.282;2024-01-27T06:52:55;7.93;;;3.40;;
9854;SDS011;4966;48.112;9.282;2024-01-27T06:55:20;9.70;;;3.30;;
9854;SDS011;4966;48.112;9.282;2024-01-27T06:57:45;9.38;;;3.45;;
9854;SDS011;4966;48.112;9.282;2024-01-27T07:00:12;5.18;;;2.30;;
9854;SDS011;4966;48.112;9.282;2024-01-27T07:02:39;7.40;;;2.70;;
9854;SDS011;4966;48.112;9.282;2024-01-27T07:05:05;4.95;;;2.28;;
9854;SDS011;4966;48.112;9.282;2024-01-27T07:07:31;8.30;;;2.40;;
9854;SDS011;4966;48.112;9.282;2024-01-27T07:09:56;5.40;;;2.50;;
9854;SDS011;4966;48.112;9.282;2024-01-27T07:12:22;11.50;;;2.58;;
9854;SDS011;4966;48.112;9.282;2024-01-27T07:14:48;13.00;;;4.75;;
9854;SDS011;4966;48.112;9.282;2024-01-27T07:17:13;8.60;;;4.00;;
9854;SDS011;4966;48.112;9.282;2024-01-27T07:19:38;9.43;;;4.05;;
9854;SDS011;4966;48.112;9.282;2024-01-27T07:22:04;6.20;;;3.13;;
9854;SDS011;4966;48.112;9.282;2024-01-27T07:24:29;5.75;;;2.70;;
9854;SDS011;4966;48.112;9.282;2024-01-27T07:26:55;13.05;;;5.75;;
9854;SDS011;4966;48.112;9.282;2024-01-27T07:29:20;11.82;;;4.20;;
9854;SDS011;4966;48.112;9.282;2024-01-27T07:31:46;8.90;;;2.47;;
9854;SDS011;4966;48.112;9.282;2024-01-27T07:34:11;14.75;;;3.03;;
9854;SDS011;4966;48.112;9.282;2024-01-27T07:36:36;4.38;;;2.10;;
9854;SDS011;4966;48.112;9.282;2024-01-27T07:39:02;5.65;;;1.77;;
9854;SDS011;4966;48.112;9.282;2024-01-27T07:41:29;5.80;;;2.15;;
9854;SDS011;4966;48.112;9.282;2024-01-27T07:43:55;6.82;;;2.63;;
9854;SDS011;4966;48.112;9.282;2024-01-27T07:46:21;7.90;;;3.25;;
9854;SDS011;4966;48.112;9.282;2024-01-27T07:48:47;7.47;;;3.05;;
9854;SDS011;4966;48.112;9.282;2024-01-27T07:51:14;5.53;;;2.88;;
9854;SDS011;4966;48.112;9.282;2024-01-27T07:53:39;8.38;;;3.20;;
9854;SDS011;4966;48.112;9.282;2024-01-27T07:56:05;6.38;;;2.67;;
9854;SDS011;4966;48.112;9.282;2024-01-27T07:58:31;4.75;;;1.90;;
9854;SDS011;4966;48.112;9.282;2024-01-27T08:00:56;5.93;;;1.63;;
9854;SDS011;4966;48.112;9.282;2024-01-27T08:03:22;6.30;;;1.80;;
9854;SDS011;4966;48.112;9.282;2024-01-27T08:05:47;6.63;;;2.88;;
9854;SDS011;4966;48.112;9.282;2024-01-27T08:08:13;9.30;;;3.38;;
9854;SDS011;4966;48.112;9.282;2024-01-27T08:10:38;7.68;;;2.40;;
9854;SDS011;4966;48.112;9.282;2024-01-27T08:13:05;6.13;;;1.42;;
9854;SDS011;4966;48.112;9.282;2024-01-27T08:15:30;10.98;;;3.90;;
9854;SDS011;4966;48.112;9.282;2024-01-27T08:17:55;15.25;;;7.55;;
9854;SDS011;4966;48.112;9.282;2024-01-27T08:20:21;24.35;;;12.25;;
9854;SDS011;4966;48.112;9.282;2024-01-27T08:22:46;23.88;;;10.98;;
9854;SDS011;4966;48.112;9.282;2024-01-27T08:25:15;23.98;;;10.48;;
9854;SDS011;4966;48.112;9.282;2024-01-27T08:27:41;24.98;;;11.38;;
9854;SDS011;4966;48.112;9.282;2024-01-27T08:30:06;13.73;;;5.38;;
9854;SDS011;4966;48.112;9.282;2024-01-27T08:32:33;10.15;;;4.60;;
9854;SDS011;4966;48.112;9.282;2024-01-27T08:34:59;10.77;;;5.00;;
9854;SDS011;4966;48.112;9.282;2024-01-27T08:37:25;13.90;;;5.97;;
9854;SDS011;4966;48.112;9.282;2024-01-27T08:39:50;12.55;;;6.53;;
9854;SDS011;4966;48.112;9.282;2024-01-27T08:42:16;15.45;;;6.38;;
9854;SDS011;4966;48.112;9.282;2024-01-27T08:44:42;12.48;;;6.03;;
9854;SDS011;4966;48.112;9.282;2024-01-27T08:47:07;14.48;;;4.93;;
9854;SDS011;4966;48.112;9.282;2024-01-27T08:49:33;9.95;;;5.55;;
9854;SDS011;4966;48.112;9.282;2024-01-27T08:51:58;10.73;;;5.30;;
9854;SDS011;4966;48.112;9.282;2024-01-27T08:54:23;12.95;;;6.47;;
9854;SDS011;4966;48.112;9.282;2024-01-27T08:56:49;20.73;;;9.50;;
9854;SDS011;4966;48.112;9.282;2024-01-27T08:59:15;18.88;;;7.72;;
9854;SDS011;4966;48.112;9.282;2024-01-27T09:01:41;19.60;;;9.20;;
9854;SDS011;4966;48.112;9.282;2024-01-27T09:04:07;25.38;;;11.00;;
9854;SDS011;4966;48.112;9.282;2024-01-27T09:06:32;20.48;;;10.18;;
9854;SDS011;4966;48.112;9.282;2024-01-27T09:08:58;26.02;;;10.85;;
9854;SDS011;4966;48.112;9.282;2024-01-27T09:11:23;21.83;;;10.57;;
9854;SDS011;4966;48.112;9.282;2024-01-27T09:13:49;23.52;;;10.30;;
9854;SDS011;4966;48.112;9.282;2024-01-27T09:16:17;20.10;;;9.75;;
9854;SDS011;4966;48.112;9.282;2024-01-27T09:18:42;23.13;;;10.45;;
9854;SDS011;4966;48.112;9.282;2024-01-27T09:21:08;20.38;;;9.45;;
9854;SDS011;4966;48.112;9.282;2024-01-27T09:23:34;21.15;;;9.73;;
9854;SDS011;4966;48.112;9.282;2024-01-27T09:25:59;15.57;;;7.60;;
9854;SDS011;4966;48.112;9.282;2024-01-27T09:28:24;13.43;;;5.75;;
9854;SDS011;4966;48.112;9.282;2024-01-27T09:30:50;11.15;;;5.00;;
9854;SDS011;4966;48.112;9.282;2024-01-27T09:33:16;7.70;;;4.20;;
9854;SDS011;4966;48.112;9.282;2024-01-27T09:35:44;8.32;;;3.35;;
9854;SDS011;4966;48.112;9.282;2024-01-27T09:38:10;9.88;;;3.55;;
9854;SDS011;4966;48.112;9.282;2024-01-27T09:40:37;6.32;;;3.38;;
9854;SDS011;4966;48.112;9.282;2024-01-27T09:43:03;9.23;;;4.28;;
9854;SDS011;4966;48.112;9.282;2024-01-27T09:45:29;11.05;;;5.30;;
9854;SDS011;4966;48.112;9.282;2024-01-27T09:47:56;11.93;;;5.47;;
9854;SDS011;4966;48.112;9.282;2024-01-27T09:50:25;18.60;;;7.03;;
9854;SDS011;4966;48.112;9.282;2024-01-27T09:52:50;13.20;;;5.70;;
9854;SDS011;4966;48.112;9.282;2024-01-27T09:55:16;13.05;;;6.47;;
9854;SDS011;4966;48.112;9.282;2024-01-27T09:57:41;13.38;;;5.60;;
9854;SDS011;4966;48.112;9.282;2024-01-27T10:00:08;10.30;;;4.10;;
9854;SDS011;4966;48.112;9.282;2024-01-27T10:02:36;6.30;;;3.53;;
9854;SDS011;4966;48.112;9.282;2024-01-27T10:05:05;10.60;;;2.92;;
9854;SDS011;4966;48.112;9.282;2024-01-27T10:07:32;6.25;;;2.70;;
9854;SDS011;4966;48.112;9.282;2024-01-27T10:09:57;7.95;;;3.17;;
9854;SDS011;4966;48.112;9.282;2024-01-27T10:12:23;6.72;;;2.92;;
9854;SDS011;4966;48.112;9.282;2024-01-27T10:14:51;6.30;;;3.13;;
9854;SDS011;4966;48.112;9.282;2024-01-27T10:17:21;6.53;;;3.10;;
9854;SDS011;4966;48.112;9.282;2024-01-27T10:19:47;8.85;;;3.00;;
9854;SDS011;4966;48.112;9.282;2024-01-27T10:22:13;13.95;;;3.05;;
9854;SDS011;4966;48.112;9.282;2024-01-27T10:24:38;8.82;;;3.30;;
9854;SDS011;4966;48.112;9.282;2024-01-27T10:27:04;9.65;;;3.42;;
9854;SDS011;4966;48.112;9.282;2024-01-27T10:29:32;9.02;;;3.47;;
9854;SDS011;4966;48.112;9.282;2024-01-27T10:32:10;8.35;;;3.58;;
9854;SDS011;4966;48.112;9.282;2024-01-27T10:34:36;9.23;;;3.45;;
9854;SDS011;4966;48.112;9.282;2024-01-27T10:37:01;7.85;;;2.55;;
9854;SDS011;4966;48.112;9.282;2024-01-27T10:39:26;4.80;;;2.58;;
9854;SDS011;4966;48.112;9.282;2024-01-27T10:41:52;4.53;;;2.80;;
9854;SDS011;4966;48.112;9.282;2024-01-27T10:44:17;7.93;;;2.60;;
9854;SDS011;4966;48.112;9.282;2024-01-27T10:46:44;10.05;;;3.28;;
9854;SDS011;4966;48.112;9.282;2024-01-27T10:49:14;9.38;;;3.03;;
9854;SDS011;4966;48.112;9.282;2024-01-27T10:51:43;6.45;;;2.50;;
9854;SDS011;4966;48.112;9.282;2024-01-27T10:54:24;3.60;;;2.30;;
9854;SDS011;4966;48.112;9.282;2024-01-27T10:56:51;3.75;;;2.13;;
9854;SDS011;4966;48.112;9.282;2024-01-27T10:59:20;7.00;;;2.20;;
9854;SDS011;4966;48.112;9.282;2024-01-27T11:01:48;5.65;;;2.42;;
9854;SDS011;4966;48.112;9.282;2024-01-27T11:04:16;5.63;;;2.35;;
9854;SDS011;4966;48.112;9.282;2024-01-27T11:06:42;3.20;;;1.95;;
9854;SDS011;4966;48.112;9.282;2024-01-27T11:09:09;7.15;;;2.25;;
9854;SDS011;4966;48.112;9.282;2024-01-27T11:11:37;6.03;;;2.22;;
9854;SDS011;4966;48.112;9.282;2024-01-27T11:14:03;5.70;;;1.67;;
9854;SDS011;4966;48.112;9.282;2024-01-27T11:16:29;4.28;;;1.75;;
9854;SDS011;4966;48.112;9.282;2024-01-27T11:18:54;4.43;;;1.80;;
9854;SDS011;4966;48.112;9.282;2024-01-27T11:21:19;4.38;;;1.70;;
9854;SDS011;4966;48.112;9.282;2024-01-27T11:23:45;6.93;;;1.60;;
9854;SDS011;4966;48.112;9.282;2024-01-27T11:26:16;5.55;;;1.20;;
9854;SDS011;4966;48.112;9.282;2024-01-27T11:28:44;3.85;;;1.30;;
9854;SDS011;4966;48.112;9.282;2024-01-27T11:31:10;4.55;;;1.20;;
9854;SDS011;4966;48.112;9.282;2024-01-27T11:33:43;4.20;;;1.13;;
9854;SDS011;4966;48.112;9.282;2024-01-27T11:36:14;5.63;;;2.00;;
9854;SDS011;4966;48.112;9.282;2024-01-27T11:38:44;2.08;;;1.13;;
9854;SDS011;4966;48.112;9.282;2024-01-27T11:41:09;4.70;;;1.10;;
9854;SDS011;4966;48.112;9.282;2024-01-27T11:43:34;3.65;;;1.13;;
9854;SDS011;4966;48.112;9.282;2024-01-27T11:46:00;9.93;;;1.35;;
9854;SDS011;4966;48.112;9.282;2024-01-27T11:48:26;3.47;;;1.02;;
9854;SDS011;4966;48.112;9.282;2024-01-27T11:53:30;8.18;;;1.05;;
9854;SDS011;4966;48.112;9.282;2024-01-27T11:55:56;2.70;;;1.30;;
9854;SDS011;4966;48.112;9.282;2024-01-27T11:58:21;2.83;;;1.20;;
9854;SDS011;4966;48.112;9.282;2024-01-27T12:00:47;6.85;;;0.90;;
9854;SDS011;4966;48.112;9.282;2024-01-27T12:03:13;4.85;;;1.10;;
9854;SDS011;4966;48.112;9.282;2024-01-27T12:05:38;5.80;;;1.10;;
9854;SDS011;4966;48.112;9.282;2024-01-27T12:08:04;3.47;;;0.90;;
9854;SDS011;4966;48.112;9.282;2024-01-27T12:10:33;2.80;;;1.30;;
9854;SDS011;4966;48.112;9.282;2024-01-27T12:12:58;1.63;;;0.63;;
9854;SDS011;4966;48.112;9.282;2024-01-27T12:15:24;6.72;;;0.98;;
9854;SDS011;4966;48.112;9.282;2024-01-27T12:17:51;2.83;;;0.70;;
9854;SDS011;4966;48.112;9.282;2024-01-27T12:20:17;3.88;;;1.10;;
9854;SDS011;4966;48.112;9.282;2024-01-27T12:22:42;3.20;;;0.75;;
9854;SDS011;4966;48.112;9.282;2024-01-27T12:25:09;3.88;;;0.93;;
9854;SDS011;4966;48.112;9.282;2024-01-27T12:27:36;3.22;;;0.80;;
9854;SDS011;4966;48.112;9.282;2024-01-27T12:30:02;1.42;;;0.70;;
9854;SDS011;4966;48.112;9.282;2024-01-27T12:32:27;2.17;;;0.73;;
9854;SDS011;4966;48.112;9.282;2024-01-27T12:34:53;3.90;;;0.82;;
9854;SDS011;4966;48.112;9.282;2024-01-27T12:37:20;2.30;;;0.50;;
9854;SDS011;4966;48.112;9.282;2024-01-27T12:39:47;4.68;;;0.70;;
9854;SDS011;4966;48.112;9.282;2024-01-27T12:42:15;1.25;;;0.40;;
9854;SDS011;4966;48.112;9.282;2024-01-27T12:44:41;3.92;;;0.60;;
9854;SDS011;4966;48.112;9.282;2024-01-27T12:47:07;3.67;;;0.77;;
9854;SDS011;4966;48.112;9.282;2024-01-27T12:49:33;2.67;;;0.90;;
9854;SDS011;4966;48.112;9.282;2024-01-27T12:51:59;3.90;;;1.00;;
9854;SDS011;4966;48.112;9.282;2024-01-27T12:54:25;2.95;;;0.73;;
9854;SDS011;4966;48.112;9.282;2024-01-27T12:56:50;2.20;;;0.75;;
9854;SDS011;4966;48.112;9.282;2024-01-27T12:59:15;5.72;;;0.93;;
9854;SDS011;4966;48.112;9.282;2024-01-27T13:01:41;2.75;;;0.70;;
9854;SDS011;4966;48.112;9.282;2024-01-27T13:04:06;3.60;;;0.70;;
9854;SDS011;4966;48.112;9.282;2024-01-27T13:06:32;4.85;;;1.60;;
9854;SDS011;4966;48.112;9.282;2024-01-27T13:08:57;2.72;;;0.70;;
9854;SDS011;4966;48.112;9.282;2024-01-27T13:11:22;2.38;;;0.88;;
9854;SDS011;4966;48.112;9.282;2024-01-27T13:13:49;2.72;;;0.93;;
9854;SDS011;4966;48.112;9.282;2024-01-27T13:16:14;2.42;;;1.10;;
9854;SDS011;4966;48.112;9.282;2024-01-27T13:18:39;3.08;;;1.10;;
9854;SDS011;4966;48.112;9.282;2024-01-27T13:21:05;3.92;;;1.30;;
9854;SDS011;4966;48.112;9.282;2024-01-27T13:23:31;4.22;;;1.50;;
9854;SDS011;4966;48.112;9.282;2024-01-27T13:25:57;5.07;;;1.27;;
9854;SDS011;4966;48.112;9.282;2024-01-27T13:28:22;4.25;;;1.45;;
9854;SDS011;4966;48.112;9.282;2024-01-27T13:30:47;3.85;;;1.00;;
9854;SDS011;4966;48.112;9.282;2024-01-27T13:33:14;2.17;;;1.08;;
9854;SDS011;4966;48.112;9.282;2024-01-27T13:35:40;5.10;;;1.52;;
9854;SDS011;4966;48.112;9.282;2024-01-27T13:38:07;2.20;;;1.13;;
9854;SDS011;4966;48.112;9.282;2024-01-27T13:40:33;3.78;;;1.40;;
9854;SDS011;4966;48.112;9.282;2024-01-27T13:42:58;3.08;;;1.23;;
9854;SDS011;4966;48.112;9.282;2024-01-27T13:45:25;2.70;;;1.25;;
9854;SDS011;4966;48.112;9.282;2024-01-27T13:47:50;3.50;;;1.40;;
9854;SDS011;4966;48.112;9.282;2024-01-27T13:50:15;3.25;;;1.45;;
9854;SDS011;4966;48.112;9.282;2024-01-27T13:52:41;5.43;;;1.60;;
9854;SDS011;4966;48.112;9.282;2024-01-27T13:55:08;5.28;;;1.83;;
9854;SDS011;4966;48.112;9.282;2024-01-27T13:57:34;5.68;;;1.10;;
9854;SDS011;4966;48.112;9.282;2024-01-27T14:00:00;4.25;;;1.25;;
9854;SDS011;4966;48.112;9.282;2024-01-27T14:02:25;4.05;;;1.27;;
9854;SDS011;4966;48.112;9.282;2024-01-27T14:04:50;3.10;;;1.10;;
9854;SDS011;4966;48.112;9.282;2024-01-27T14:07:16;2.40;;;1.30;;
9854;SDS011;4966;48.112;9.282;2024-01-27T14:09:41;4.30;;;1.20;;
9854;SDS011;4966;48.112;9.282;2024-01-27T14:12:09;3.22;;;1.67;;
9854;SDS011;4966;48.112;9.282;2024-01-27T14:14:34;2.63;;;1.10;;
9854;SDS011;4966;48.112;9.282;2024-01-27T14:17:03;4.47;;;1.52;;
9854;SDS011;4966;48.112;9.282;2024-01-27T14:19:29;6.63;;;1.50;;
9854;SDS011;4966;48.112;9.282;2024-01-27T14:21:54;3.05;;;1.00;;
9854;SDS011;4966;48.112;9.282;2024-01-27T14:24:20;5.63;;;1.15;;
9854;SDS011;4966;48.112;9.282;2024-01-27T14:26:46;4.88;;;1.05;;
9854;SDS011;4966;48.112;9.282;2024-01-27T14:29:11;2.22;;;0.90;;
9854;SDS011;4966;48.112;9.282;2024-01-27T14:31:37;3.60;;;1.17;;
9854;SDS011;4966;48.112;9.282;2024-01-27T14:34:02;6.45;;;0.95;;
9854;SDS011;4966;48.112;9.282;2024-01-27T14:36:27;3.65;;;0.90;;
9854;SDS011;4966;48.112;9.282;2024-01-27T14:38:52;6.55;;;1.17;;
9854;SDS011;4966;48.112;9.282;2024-01-27T14:41:18;2.88;;;0.73;;
9854;SDS011;4966;48.112;9.282;2024-01-27T14:43:45;2.20;;;0.90;;
9854;SDS011;4966;48.112;9.282;2024-01-27T14:46:10;3.00;;;0.80;;
9854;SDS011;4966;48.112;9.282;2024-01-27T14:48:35;5.13;;;0.98;;
9854;SDS011;4966;48.112;9.282;2024-01-27T14:51:01;3.28;;;1.10;;
9854;SDS011;4966;48.112;9.282;2024-01-27T14:53:28;3.67;;;1.00;;
9854;SDS011;4966;48.112;9.282;2024-01-27T14:55:54;2.47;;;0.90;;
9854;SDS011;4966;48.112;9.282;2024-01-27T14:58:21;4.90;;;1.10;;
9854;SDS011;4966;48.112;9.282;2024-01-27T15:00:46;4.57;;;1.10;;
9854;SDS011;4966;48.112;9.282;2024-01-27T15:03:17;6.07;;;1.40;;
9854;SDS011;4966;48.112;9.282;2024-01-27T15:05:52;6.15;;;1.38;;